Time;durP1;ratioP1;P1;durP2;ratioP2;P2;SDS_P1;SDS_P2;PMS_P1;PMS_P2;Temp;Humidity;BMP_temperature;BMP_pressure;BME280_temperature;BME280_humidity;BME280_pressure;Samples;Min_cycle;Max_cycle;Signal;HPM_P1;HPM_P2
2022/10/17 02:47:56;;;;;;;2.38;0.50;;;10.70;99.90;;;;;;5270638;23;88584;-75
2022/10/17 02:50:28;;;;;;;4.35;0.55;;;10.80;99.90;;;;;;4896574;28;86749;-74
2022/10/17 02:53:12;;;;;;;2.10;0.30;;;10.90;99.90;;;;;;4897687;28;88922;-75
2022/10/17 02:55:49;;;;;;;2.67;0.55;;;10.80;99.90;;;;;;4898613;28;86229;-74
2022/10/17 02:58:19;;;;;;;4.55;0.93;;;10.70;99.90;;;;;;4898673;28;86786;-76
2022/10/17 03:00:45;;;;;;;2.95;0.60;;;10.80;99.90;;;;;;4894096;28;88140;-75
2022/10/17 03:03:23;;;;;;;2.17;0.43;;;10.70;99.90;;;;;;4890356;28;87052;-75
2022/10/17 03:05:49;;;;;;;3.85;0.70;;;10.70;99.90;;;;;;4893855;28;87169;-77
2022/10/17 03:08:14;;;;;;;2.83;0.70;;;10.70;99.90;;;;;;4897777;28;87200;-76
2022/10/17 03:10:40;;;;;;;4.25;0.85;;;10.70;99.90;;;;;;4898363;28;87388;-78
2022/10/17 03:13:06;;;;;;;3.38;0.63;;;10.70;99.90;;;;;;4898554;28;86934;-75
2022/10/17 03:15:31;;;;;;;1.55;0.50;;;10.60;99.90;;;;;;4906364;28;86442;-76
2022/10/17 03:17:57;;;;;;;2.35;0.50;;;10.60;99.90;;;;;;4905547;28;86785;-75
2022/10/17 03:20:23;;;;;;;2.70;0.45;;;10.60;99.90;;;;;;4899155;28;86544;-74
2022/10/17 03:22:48;;;;;;;9.88;0.63;;;10.60;99.90;;;;;;4902760;28;87538;-78
2022/10/17 03:25:14;;;;;;;7.43;0.60;;;10.70;99.90;;;;;;4896817;28;88387;-78
2022/10/17 03:27:39;;;;;;;2.03;0.63;;;10.70;99.90;;;;;;4890896;28;86636;-77
2022/10/17 03:30:06;;;;;;;2.28;0.52;;;10.70;99.90;;;;;;4892810;28;88171;-77
2022/10/17 03:32:35;;;;;;;5.10;0.60;;;10.70;99.90;;;;;;4897710;28;88129;-78
2022/10/17 03:35:01;;;;;;;4.53;1.00;;;10.70;99.90;;;;;;4895200;28;87020;-77
2022/10/17 03:37:26;;;;;;;2.55;0.82;;;10.70;99.90;;;;;;4896648;28;86305;-77
2022/10/17 03:39:52;;;;;;;5.38;0.90;;;10.60;99.90;;;;;;4898596;28;87244;-77
2022/10/17 03:42:18;;;;;;;3.40;0.55;;;10.70;99.90;;;;;;4898687;28;87289;-76
2022/10/17 03:44:43;;;;;;;4.25;0.75;;;10.70;99.90;;;;;;4905994;28;86342;-77
2022/10/17 03:47:09;;;;;;;5.25;0.70;;;10.70;99.90;;;;;;4897219;28;86349;-76
2022/10/17 03:49:35;;;;;;;3.35;1.25;;;10.60;99.90;;;;;;4895899;28;88653;-76
2022/10/17 03:52:00;;;;;;;3.17;0.73;;;10.50;99.90;;;;;;4897841;28;87661;-77
2022/10/17 03:54:26;;;;;;;5.15;0.85;;;10.50;99.90;;;;;;4892937;28;86887;-76
2022/10/17 03:56:52;;;;;;;2.88;0.85;;;10.50;99.90;;;;;;4897884;28;86985;-77
2022/10/17 03:59:17;;;;;;;4.03;0.70;;;10.50;99.90;;;;;;4900254;28;87222;-76
2022/10/17 04:01:43;;;;;;;3.70;0.70;;;10.50;99.90;;;;;;4899543;28;86995;-76
2022/10/17 04:04:09;;;;;;;2.42;0.73;;;10.60;99.90;;;;;;4897145;28;86405;-76
2022/10/17 04:06:36;;;;;;;1.63;0.60;;;10.50;99.90;;;;;;4900086;28;85811;-76
2022/10/17 04:09:03;;;;;;;2.25;0.65;;;10.50;99.90;;;;;;4889030;28;87000;-77
2022/10/17 04:11:28;;;;;;;2.22;0.43;;;10.60;99.90;;;;;;4890080;28;87225;-77
2022/10/17 04:13:56;;;;;;;3.10;0.80;;;10.50;99.90;;;;;;4889465;28;88294;-77
2022/10/17 04:16:22;;;;;;;6.38;0.90;;;10.50;99.90;;;;;;4901123;28;86927;-77
2022/10/17 04:18:53;;;;;;;3.67;0.68;;;10.40;99.90;;;;;;4899433;28;87254;-79
2022/10/17 04:21:18;;;;;;;2.63;0.75;;;10.40;99.90;;;;;;4897608;28;87171;-78
2022/10/17 04:23:44;;;;;;;4.03;0.93;;;10.40;99.90;;;;;;4890474;28;86767;-76
2022/10/17 04:26:10;;;;;;;2.95;1.00;;;10.40;99.90;;;;;;4897079;28;86284;-77
2022/10/17 04:28:36;;;;;;;4.18;0.90;;;10.30;99.90;;;;;;4895685;28;87239;-78
2022/10/17 04:31:04;;;;;;;4.40;1.02;;;10.40;99.90;;;;;;4893228;28;86411;-78
2022/10/17 04:33:31;;;;;;;6.05;1.50;;;10.40;99.90;;;;;;4898604;28;86888;-77
2022/10/17 04:36:01;;;;;;;7.07;1.08;;;10.30;99.90;;;;;;4899488;28;86951;-77
2022/10/17 04:38:28;;;;;;;7.13;0.98;;;10.30;99.90;;;;;;4898812;28;87812;-77
2022/10/17 04:41:01;;;;;;;4.50;0.82;;;10.30;99.90;;;;;;4896364;28;88571;-77
2022/10/17 04:43:30;;;;;;;3.75;0.90;;;10.30;99.90;;;;;;4898421;28;87173;-78
2022/10/17 04:45:57;;;;;;;7.30;0.73;;;10.20;99.90;;;;;;4894596;28;86902;-76
2022/10/17 04:48:23;;;;;;;5.65;0.95;;;10.20;99.90;;;;;;4892755;28;87173;-77
2022/10/17 04:50:56;;;;;;;3.53;0.75;;;10.20;99.90;;;;;;4891223;28;86895;-77
2022/10/17 04:53:23;;;;;;;4.90;0.70;;;10.20;99.90;;;;;;4899827;28;86677;-77
2022/10/17 04:55:49;;;;;;;2.53;0.80;;;10.30;99.90;;;;;;4895950;28;85846;-77
2022/10/17 04:58:15;;;;;;;4.85;0.98;;;10.20;99.90;;;;;;4895586;28;86974;-79
2022/10/17 05:00:41;;;;;;;5.15;0.82;;;10.20;99.90;;;;;;4895494;28;87402;-77
2022/10/17 05:03:07;;;;;;;5.93;1.23;;;10.20;99.90;;;;;;4893294;28;87452;-77
2022/10/17 05:05:32;;;;;;;5.38;1.13;;;10.20;99.90;;;;;;4890885;28;86216;-77
2022/10/17 05:07:58;;;;;;;4.97;1.30;;;10.20;99.90;;;;;;4896813;28;87309;-77
2022/10/17 05:10:24;;;;;;;5.28;1.05;;;10.10;99.90;;;;;;4897141;28;86956;-76
2022/10/17 05:12:50;;;;;;;4.15;1.38;;;10.10;99.90;;;;;;4893773;28;86848;-79
2022/10/17 05:15:16;;;;;;;3.35;0.98;;;10.10;99.90;;;;;;4894740;28;86826;-77
2022/10/17 05:17:42;;;;;;;3.38;1.40;;;10.10;99.90;;;;;;4894410;28;87730;-78
2022/10/17 05:20:08;;;;;;;3.30;0.98;;;10.00;99.90;;;;;;4899584;28;87421;-79
2022/10/17 05:22:34;;;;;;;5.57;0.98;;;10.10;99.90;;;;;;4893374;28;86673;-77
2022/10/17 05:24:59;;;;;;;7.70;3.25;;;10.10;99.90;;;;;;4894727;28;86296;-78
2022/10/17 05:27:25;;;;;;;4.00;1.10;;;10.20;99.90;;;;;;4908898;28;88342;-77
2022/10/17 05:29:51;;;;;;;5.03;2.08;;;10.30;99.90;;;;;;4899976;28;87912;-77
2022/10/17 05:32:17;;;;;;;7.30;1.33;;;10.20;99.90;;;;;;4897392;28;86639;-78
2022/10/17 05:34:42;;;;;;;3.42;1.23;;;10.10;99.90;;;;;;4897931;28;89362;-79
2022/10/17 05:37:08;;;;;;;5.30;1.35;;;10.10;99.90;;;;;;4898124;28;87265;-78
2022/10/17 05:39:33;;;;;;;6.25;1.75;;;10.20;99.90;;;;;;4900682;28;86617;-79
2022/10/17 05:41:59;;;;;;;4.65;1.35;;;10.10;99.90;;;;;;4899752;28;86778;-80
2022/10/17 05:44:25;;;;;;;6.40;1.40;;;10.10;99.90;;;;;;4893757;28;86327;-81
2022/10/17 05:46:51;;;;;;;5.78;1.40;;;10.10;99.90;;;;;;4898009;28;87005;-79
2022/10/17 05:49:16;;;;;;;5.10;1.08;;;10.20;99.90;;;;;;4892874;28;87458;-79
2022/10/17 05:51:42;;;;;;;3.85;1.15;;;10.20;99.90;;;;;;4893150;28;88313;-78
2022/10/17 05:54:08;;;;;;;4.45;1.40;;;10.30;99.90;;;;;;4897743;28;87025;-79
2022/10/17 05:56:34;;;;;;;3.45;1.00;;;10.30;99.90;;;;;;4896591;28;86997;-78
2022/10/17 05:59:00;;;;;;;3.90;1.00;;;10.30;99.90;;;;;;4896740;28;87280;-77
2022/10/17 06:01:26;;;;;;;4.38;0.88;;;10.40;99.90;;;;;;4893787;28;86664;-78
2022/10/17 06:03:51;;;;;;;6.35;0.90;;;10.50;99.90;;;;;;4898963;28;86639;-79
2022/10/17 06:06:18;;;;;;;3.80;1.02;;;10.50;99.90;;;;;;4893329;28;87157;-80
2022/10/17 06:08:44;;;;;;;5.38;1.60;;;10.50;99.90;;;;;;4897660;28;86638;-79
2022/10/17 06:11:11;;;;;;;5.25;1.40;;;10.60;99.90;;;;;;4897258;28;86364;-78
2022/10/17 06:13:38;;;;;;;4.40;1.02;;;11.00;99.90;;;;;;4895278;28;86422;-79
2022/10/17 06:16:04;;;;;;;6.20;1.20;;;11.70;99.90;;;;;;4892492;28;88580;-80
2022/10/17 06:18:30;;;;;;;4.20;1.23;;;12.50;99.90;;;;;;4896834;28;88175;-80
2022/10/17 06:21:07;;;;;;;3.30;1.00;;;12.90;99.90;;;;;;4894366;28;86780;-78
2022/10/17 06:23:33;;;;;;;6.28;0.88;;;13.40;99.90;;;;;;4892830;28;86804;-80
2022/10/17 06:26:00;;;;;;;4.72;0.90;;;14.30;99.90;;;;;;4891049;28;87612;-79
2022/10/17 06:28:26;;;;;;;4.60;0.95;;;15.20;99.90;;;;;;4889115;28;86951;-80
2022/10/17 06:30:51;;;;;;;3.22;1.10;;;16.00;97.40;;;;;;4896817;28;86292;-81
2022/10/17 06:33:17;;;;;;;7.32;1.38;;;16.40;97.10;;;;;;4893623;28;85709;-80
2022/10/17 06:35:43;;;;;;;4.07;1.20;;;17.00;91.20;;;;;;4893644;28;87263;-80
2022/10/17 06:38:09;;;;;;;10.65;1.65;;;17.90;90.50;;;;;;4898131;28;86964;-80
2022/10/17 06:40:34;;;;;;;11.73;1.80;;;17.60;87.50;;;;;;4887982;28;87797;-81
2022/10/17 06:43:00;;;;;;;5.22;1.90;;;17.70;89.80;;;;;;4896216;28;86731;-81
2022/10/17 06:45:26;;;;;;;8.48;1.90;;;17.10;86.90;;;;;;4893983;28;88196;-80
2022/10/17 06:47:51;;;;;;;5.10;1.67;;;17.70;85.00;;;;;;4893054;28;86938;-80
2022/10/17 06:50:17;;;;;;;11.02;1.52;;;17.70;87.40;;;;;;4897895;28;87068;-81
2022/10/17 06:52:43;;;;;;;8.65;1.60;;;17.70;85.40;;;;;;4895172;28;86879;-81
2022/10/17 06:55:08;;;;;;;6.97;1.80;;;18.40;83.90;;;;;;4897006;28;86445;-83
2022/10/17 06:57:34;;;;;;;11.13;3.53;;;20.40;77.10;;;;;;4896808;28;87057;-81
2022/10/17 07:00:00;;;;;;;6.43;2.20;;;22.30;70.20;;;;;;4895528;28;86650;-82
2022/10/17 07:02:26;;;;;;;6.60;1.92;;;23.50;64.60;;;;;;4896793;28;86842;-81
2022/10/17 07:04:51;;;;;;;5.88;2.15;;;24.30;60.80;;;;;;4901061;28;90508;-82
2022/10/17 07:07:17;;;;;;;6.95;3.10;;;25.00;60.80;;;;;;4899457;28;87307;-83
2022/10/17 07:09:43;;;;;;;4.25;1.88;;;25.60;59.00;;;;;;4899801;28;86315;-82
2022/10/17 07:12:10;;;;;;;6.28;2.15;;;26.10;56.70;;;;;;4898577;28;86438;-84
2022/10/17 07:14:36;;;;;;;5.47;2.25;;;27.60;51.90;;;;;;4900567;28;86985;-83
2022/10/17 07:17:02;;;;;;;5.30;1.83;;;27.00;52.20;;;;;;4900925;28;86537;-83
2022/10/17 07:19:28;;;;;;;7.05;2.78;;;27.30;52.60;;;;;;4898838;28;88227;-84
2022/10/17 07:21:54;;;;;;;9.93;2.22;;;28.10;51.40;;;;;;4900558;28;85802;-84
2022/10/17 07:24:20;;;;;;;6.45;2.00;;;29.10;50.20;;;;;;4898412;28;87358;-82
2022/10/17 07:26:45;;;;;;;6.75;2.15;;;30.10;49.50;;;;;;4898937;28;88016;-83
2022/10/17 07:29:11;;;;;;;4.63;2.15;;;30.40;47.10;;;;;;4900363;28;87254;-79
2022/10/17 07:31:37;;;;;;;4.40;2.60;;;31.20;46.50;;;;;;4899997;28;86727;-83
2022/10/17 07:34:03;;;;;;;6.75;2.28;;;31.30;45.60;;;;;;4899689;28;88322;-81
2022/10/17 07:36:28;;;;;;;4.47;2.35;;;31.50;45.10;;;;;;4900514;28;87419;-83
2022/10/17 07:38:54;;;;;;;6.65;3.47;;;32.20;44.30;;;;;;4900161;28;86212;-82
2022/10/17 07:41:20;;;;;;;6.50;2.38;;;32.90;42.90;;;;;;4898318;28;86242;-83
2022/10/17 07:43:46;;;;;;;5.70;2.45;;;33.40;42.90;;;;;;4893288;28;87660;-82
2022/10/17 07:46:12;;;;;;;4.25;2.10;;;33.60;42.70;;;;;;4899913;28;87384;-81
2022/10/17 07:48:38;;;;;;;7.53;2.03;;;34.40;42.80;;;;;;4888833;28;86338;-83
2022/10/17 07:51:06;;;;;;;3.25;2.20;;;35.00;42.00;;;;;;4900075;28;86921;-84
2022/10/17 07:53:35;;;;;;;3.25;2.17;;;34.50;41.60;;;;;;4899623;28;88066;-79
2022/10/17 07:56:05;;;;;;;3.72;2.30;;;35.00;41.90;;;;;;4899811;28;87973;-81
2022/10/17 07:58:31;;;;;;;4.57;2.38;;;34.00;42.00;;;;;;4899298;28;86928;-80
2022/10/17 08:01:01;;;;;;;4.38;2.42;;;32.90;43.30;;;;;;4897784;28;86360;-81
2022/10/17 08:03:26;;;;;;;4.68;2.22;;;31.90;45.70;;;;;;4897882;28;87228;-84
2022/10/17 08:05:56;;;;;;;3.60;2.15;;;30.90;46.60;;;;;;4899858;28;87050;-82
2022/10/17 08:08:22;;;;;;;4.97;1.75;;;30.60;46.70;;;;;;4893416;28;87065;-82
2022/10/17 08:10:48;;;;;;;9.30;2.20;;;31.30;46.90;;;;;;4896228;28;85652;-83
2022/10/17 08:13:13;;;;;;;3.88;2.05;;;32.10;45.30;;;;;;4892190;28;88531;-84
2022/10/17 08:15:39;;;;;;;4.75;2.70;;;33.20;44.90;;;;;;4899193;28;86952;-82
2022/10/17 08:18:05;;;;;;;4.03;2.22;;;34.10;43.10;;;;;;4898621;28;87176;-83
2022/10/17 08:20:30;;;;;;;3.55;2.83;;;35.70;42.00;;;;;;4899125;28;86818;-80
2022/10/17 08:22:56;;;;;;;9.05;3.17;;;36.90;40.20;;;;;;4893078;28;87289;-82
2022/10/17 08:25:22;;;;;;;5.25;2.75;;;35.20;42.30;;;;;;4894530;28;86756;-80
2022/10/17 08:27:48;;;;;;;3.60;2.88;;;32.30;44.60;;;;;;4900327;28;87028;-80
2022/10/17 08:30:15;;;;;;;7.80;2.70;;;29.20;48.80;;;;;;4899450;28;87217;-80
2022/10/17 08:32:41;;;;;;;5.10;2.60;;;26.80;53.00;;;;;;4899597;28;88244;-78
2022/10/17 08:35:07;;;;;;;6.45;2.95;;;25.10;56.90;;;;;;4900557;28;86719;-81
2022/10/17 08:37:32;;;;;;;3.97;1.90;;;24.00;60.20;;;;;;4901706;28;86534;-82
2022/10/17 08:39:58;;;;;;;4.00;2.17;;;22.90;63.40;;;;;;4897191;28;87938;-80
2022/10/17 08:42:42;;;;;;;4.97;2.40;;;22.70;64.70;;;;;;4901624;28;87524;-81
2022/10/17 08:45:28;;;;;;;5.88;1.60;;;22.90;64.20;;;;;;4901628;28;87934;-82
2022/10/17 08:47:59;;;;;;;4.55;2.08;;;22.90;64.80;;;;;;4900743;28;86611;-81
2022/10/17 08:50:36;;;;;;;5.53;3.00;;;22.90;64.10;;;;;;4901596;28;86939;-83
2022/10/17 08:53:13;;;;;;;3.53;2.17;;;22.50;65.70;;;;;;4900774;28;86378;-82
2022/10/17 08:55:44;;;;;;;5.05;2.15;;;21.80;68.80;;;;;;4875898;28;90523;-82
2022/10/17 08:58:18;;;;;;;7.30;2.08;;;21.50;68.60;;;;;;4897176;28;86675;-82
2022/10/17 09:00:52;;;;;;;4.05;2.13;;;21.30;69.70;;;;;;4901992;28;85876;-81
2022/10/17 09:03:40;;;;;;;6.60;2.58;;;21.40;70.00;;;;;;4899480;28;87317;-81
2022/10/17 09:06:11;;;;;;;5.20;2.60;;;21.10;71.00;;;;;;4888455;28;87424;-82
2022/10/17 09:08:49;;;;;;;5.32;2.95;;;21.30;70.40;;;;;;4895275;28;87781;-81
2022/10/17 09:11:37;;;;;;;7.97;2.63;;;21.60;69.30;;;;;;4893643;28;86848;-81
2022/10/17 09:14:21;;;;;;;;;;;21.20;71.50;;;;;;4899583;28;87227;-81
2022/10/17 09:17:02;;;;;;;7.07;2.50;;;22.10;69.50;;;;;;4902164;28;87047;-82
2022/10/17 09:19:33;;;;;;;5.63;1.80;;;22.60;67.20;;;;;;4896695;28;87780;-82
2022/10/17 09:22:07;;;;;;;3.72;2.85;;;24.80;64.00;;;;;;4898104;28;86724;-81
2022/10/17 09:24:56;;;;;;;7.18;2.22;;;26.70;57.10;;;;;;4883582;28;87304;-83
2022/10/17 09:27:40;;;;;;;;;;;26.80;57.20;;;;;;4898293;28;88270;-80
2022/10/17 09:30:33;;;;;;;4.82;2.60;;;28.80;53.10;;;;;;4898281;28;86278;-79
2022/10/17 09:33:00;;;;;;;4.07;2.20;;;32.20;48.90;;;;;;4892864;28;86766;-81
2022/10/17 09:35:29;;;;;;;7.35;3.15;;;34.70;44.20;;;;;;4887416;28;88188;-81
2022/10/17 09:37:55;;;;;;;7.43;3.50;;;36.50;43.90;;;;;;4898365;28;88361;-80
2022/10/17 09:40:25;;;;;;;7.00;3.75;;;37.00;40.80;;;;;;4894680;28;87011;-80
2022/10/17 09:42:52;;;;;;;5.85;3.72;;;37.80;38.70;;;;;;4891627;28;88382;-78
2022/10/17 09:45:25;;;;;;;4.60;3.55;;;36.70;40.40;;;;;;4897732;28;89304;-79
2022/10/17 09:48:09;;;;;;;8.68;4.45;;;37.10;40.40;;;;;;4898896;28;89554;-78
2022/10/17 09:50:35;;;;;;;5.47;4.18;;;37.70;38.90;;;;;;4897861;28;86933;-78
2022/10/17 09:53:15;;;;;;;4.68;3.78;;;36.30;41.10;;;;;;4896868;28;86443;-79
2022/10/17 09:55:55;;;;;;;6.45;4.15;;;35.80;41.50;;;;;;4889241;28;88370;-79
2022/10/17 09:58:21;;;;;;;7.45;5.22;;;37.30;40.00;;;;;;4896674;28;86909;-80
2022/10/17 10:00:47;;;;;;;7.70;4.55;;;37.60;39.60;;;;;;4895068;28;87218;-84
2022/10/17 10:03:22;;;;;;;8.15;3.67;;;37.80;39.00;;;;;;4887552;28;86431;-81
2022/10/17 10:05:58;;;;;;;6.10;4.07;;;37.40;39.20;;;;;;4899013;28;86812;-81
2022/10/17 10:08:35;;;;;;;5.90;4.07;;;37.10;39.20;;;;;;4898706;28;88625;-81
2022/10/17 10:11:07;;;;;;;6.75;4.03;;;36.00;40.10;;;;;;4896030;28;86822;-82
2022/10/17 10:13:34;;;;;;;6.88;3.90;;;36.60;39.60;;;;;;4896524;28;86995;-80
2022/10/17 10:16:23;;;;;;;3.63;3.10;;;36.10;40.10;;;;;;4897548;28;87277;-82
2022/10/17 10:18:50;;;;;;;4.53;3.47;;;34.50;41.00;;;;;;4897758;28;86108;-83
2022/10/17 10:21:15;;;;;;;3.97;3.58;;;32.40;43.80;;;;;;4899430;28;87607;-81
2022/10/17 10:24:02;;;;;;;3.80;3.40;;;29.90;48.10;;;;;;4891544;28;86664;-81
2022/10/17 10:26:48;;;;;;;3.60;3.15;;;28.30;50.60;;;;;;4890290;28;90137;-80
2022/10/17 10:29:33;;;;;;;3.83;3.05;;;26.60;54.00;;;;;;4890744;28;87258;-80
2022/10/17 10:32:19;;;;;;;5.78;3.10;;;25.30;58.10;;;;;;4894179;28;86728;-81
2022/10/17 10:34:55;;;;;;;4.88;2.85;;;23.60;61.00;;;;;;4889810;28;86768;-80
2022/10/17 10:37:27;;;;;;;4.65;2.40;;;22.80;64.50;;;;;;4888638;28;87345;-80
2022/10/17 10:39:59;;;;;;;4.32;2.85;;;22.20;67.70;;;;;;4891819;28;86828;-80
2022/10/17 10:42:34;;;;;;;3.80;2.60;;;21.60;68.80;;;;;;4889783;28;88123;-82
2022/10/17 10:45:18;;;;;;;3.15;2.38;;;20.90;71.80;;;;;;4892786;28;86340;-80
2022/10/17 10:47:50;;;;;;;6.05;2.83;;;20.40;73.20;;;;;;4892596;28;87720;-78
2022/10/17 10:50:25;;;;;;;3.60;2.45;;;20.40;73.40;;;;;;4893592;28;87219;-79
2022/10/17 10:53:24;;;;;;;4.60;2.72;;;20.40;72.00;;;;;;4892040;28;87342;-82
2022/10/17 10:56:10;;;;;;;6.43;2.97;;;20.30;72.80;;;;;;4888599;28;87004;-79
2022/10/17 10:58:53;;;;;;;5.88;3.15;;;20.40;70.80;;;;;;4890646;28;87857;-79
2022/10/17 11:01:28;;;;;;;3.75;2.22;;;20.10;73.60;;;;;;4895028;28;86747;-79
2022/10/17 11:04:12;;;;;;;3.83;2.22;;;20.10;75.40;;;;;;4895875;28;86326;-79
2022/10/17 11:06:42;;;;;;;5.10;2.17;;;20.10;72.00;;;;;;4897055;28;86924;-79
2022/10/17 11:09:45;;;;;;;4.70;2.25;;;20.10;72.70;;;;;;4895952;28;87016;-80
2022/10/17 11:12:36;;;;;;;4.70;2.55;;;20.00;71.20;;;;;;4895127;28;87833;-78
2022/10/17 11:15:19;;;;;;;4.43;2.30;;;20.10;72.60;;;;;;4889008;28;86299;-81
2022/10/17 11:17:52;;;;;;;6.40;2.72;;;20.00;73.90;;;;;;4886596;28;86621;-79
2022/10/17 11:20:24;;;;;;;7.07;2.28;;;20.10;72.40;;;;;;4895696;28;87512;-79
2022/10/17 11:23:00;;;;;;;3.88;2.10;;;19.80;73.40;;;;;;4890239;28;87810;-80
2022/10/17 11:25:38;;;;;;;4.95;2.45;;;19.70;75.00;;;;;;4891105;28;86264;-80
2022/10/17 11:28:16;;;;;;;5.45;1.90;;;19.50;75.80;;;;;;4895485;28;87544;-81
2022/10/17 11:30:47;;;;;;;3.88;2.13;;;19.50;74.20;;;;;;4894648;28;87445;-80
2022/10/17 11:33:42;;;;;;;5.05;2.00;;;19.50;74.10;;;;;;4888947;28;87109;-78
2022/10/17 11:36:10;;;;;;;4.15;2.10;;;19.80;73.60;;;;;;4889399;28;86907;-83
2022/10/17 11:38:40;;;;;;;3.92;2.05;;;19.90;76.00;;;;;;4899005;28;86648;-80
2022/10/17 11:41:14;;;;;;;7.35;1.98;;;20.00;72.40;;;;;;4900575;28;87374;-80
2022/10/17 11:44:06;;;;;;;3.92;1.92;;;20.10;73.80;;;;;;4890839;28;87227;-78
2022/10/17 11:46:34;;;;;;;4.65;1.92;;;20.00;75.20;;;;;;4889979;28;88985;-80
2022/10/17 11:49:11;;;;;;;4.05;1.98;;;19.80;73.20;;;;;;4885754;28;86461;-79
2022/10/17 11:52:01;;;;;;;3.58;1.80;;;19.70;74.40;;;;;;4895150;28;86711;-78
2022/10/17 11:54:36;;;;;;;4.03;1.95;;;19.90;74.50;;;;;;4885653;28;86911;-78
2022/10/17 11:57:17;;;;;;;3.42;1.90;;;19.80;74.60;;;;;;4889969;28;87165;-81
2022/10/17 12:00:12;;;;;;;3.53;1.85;;;20.00;73.60;;;;;;4898650;28;86648;-81
2022/10/17 12:03:04;;;;;;;3.72;2.05;;;20.10;76.20;;;;;;4882417;28;87429;-81
2022/10/17 12:05:38;;;;;;;3.75;2.30;;;19.90;76.70;;;;;;4898046;28;87383;-80
2022/10/17 12:08:36;;;;;;;4.70;3.10;;;19.70;77.70;;;;;;4898916;28;87065;-80
2022/10/17 12:11:20;;;;;;;6.03;2.42;;;19.60;77.70;;;;;;4898119;28;86885;-83
2022/10/17 12:13:52;;;;;;;4.13;2.03;;;19.80;78.00;;;;;;4894587;28;87491;-79
2022/10/17 12:16:18;;;;;;;4.47;2.13;;;19.80;77.40;;;;;;4892231;28;88145;-80
2022/10/17 12:18:48;;;;;;;6.22;2.15;;;19.70;77.70;;;;;;4903483;28;86525;-80
2022/10/17 12:21:14;;;;;;;5.63;1.90;;;19.70;77.90;;;;;;4901379;28;86933;-79
2022/10/17 12:23:40;;;;;;;5.25;2.00;;;19.90;75.30;;;;;;4894032;28;87962;-79
2022/10/17 12:26:08;;;;;;;6.32;2.63;;;20.00;76.00;;;;;;4897838;28;86767;-79
2022/10/17 12:28:36;;;;;;;4.63;2.03;;;20.00;75.50;;;;;;4895926;28;86777;-80
2022/10/17 12:31:24;;;;;;;4.03;2.35;;;20.00;76.40;;;;;;4892093;28;85719;-81
2022/10/17 12:33:52;;;;;;;4.35;1.92;;;19.90;77.30;;;;;;4897309;28;87285;-80
2022/10/17 12:36:17;;;;;;;4.80;2.03;;;19.90;77.70;;;;;;4894657;28;86567;-80
2022/10/17 12:38:45;;;;;;;5.93;2.10;;;20.10;77.20;;;;;;4894231;28;88364;-82
2022/10/17 12:41:11;;;;;;;4.97;2.03;;;20.10;77.40;;;;;;4902903;28;86314;-84
2022/10/17 12:43:43;;;;;;;4.70;1.92;;;20.00;77.10;;;;;;4891805;28;86853;-80
2022/10/17 12:46:09;;;;;;;4.88;1.80;;;20.00;77.30;;;;;;4894381;28;86327;-80
2022/10/17 12:48:35;;;;;;;5.07;2.15;;;20.00;77.70;;;;;;4898060;28;88991;-80
2022/10/17 12:51:08;;;;;;;6.22;2.15;;;20.10;78.40;;;;;;4901951;28;87818;-82
2022/10/17 12:53:44;;;;;;;3.78;1.80;;;19.90;78.90;;;;;;4907816;28;87719;-81
2022/10/17 12:56:10;;;;;;;6.13;2.20;;;19.80;78.60;;;;;;4900756;28;87112;-81
2022/10/17 12:58:36;;;;;;;4.75;2.05;;;19.90;78.30;;;;;;4911054;28;86485;-79
2022/10/17 13:01:02;;;;;;;3.80;1.85;;;19.90;78.50;;;;;;4904388;28;86304;-80
2022/10/17 13:03:32;;;;;;;4.68;2.33;;;20.00;78.90;;;;;;4904435;28;88007;-81
2022/10/17 13:06:02;;;;;;;4.88;2.28;;;19.90;79.00;;;;;;4897390;28;87406;-80
2022/10/17 13:08:29;;;;;;;;;;;19.90;79.50;;;;;;4893082;28;86707;-80
2022/10/17 13:10:56;;;;;;;4.55;1.52;;;19.90;79.00;;;;;;4901499;28;86810;-79
2022/10/17 13:13:33;;;;;;;4.60;2.47;;;20.10;78.20;;;;;;4899344;28;87638;-79
2022/10/17 13:15:59;;;;;;;3.53;1.45;;;20.20;78.10;;;;;;4892895;28;87066;-80
2022/10/17 13:18:28;;;;;;;3.42;1.30;;;20.20;78.30;;;;;;4890113;28;86687;-79
2022/10/17 13:20:58;;;;;;;4.45;2.15;;;20.20;78.10;;;;;;4898154;28;85847;-82
2022/10/17 13:23:30;;;;;;;6.75;1.75;;;20.30;78.30;;;;;;4898644;28;87103;-82
2022/10/17 13:26:25;;;;;;;4.53;1.50;;;20.30;77.90;;;;;;4889532;28;87057;-81
2022/10/17 13:29:04;;;;;;;5.18;1.38;;;20.20;77.60;;;;;;4886062;28;87808;-83
2022/10/17 13:31:36;;;;;;;3.65;1.52;;;20.10;76.40;;;;;;4890178;28;87222;-79
2022/10/17 13:34:05;;;;;;;4.28;1.30;;;20.10;77.50;;;;;;4895858;28;87008;-80
2022/10/17 13:36:33;;;;;;;8.30;1.60;;;20.20;76.80;;;;;;4900261;28;86935;-83
2022/10/17 13:39:08;;;;;;;6.18;2.22;;;20.30;80.40;;;;;;4894352;28;86948;-82
2022/10/17 13:41:34;;;;;;;3.05;1.63;;;20.10;78.10;;;;;;4899714;28;86353;-83
2022/10/17 13:44:02;;;;;;;4.22;2.08;;;20.00;77.60;;;;;;4891118;28;87665;-83
2022/10/17 13:46:31;;;;;;;3.38;1.77;;;20.00;79.10;;;;;;4893536;28;86424;-80
2022/10/17 13:48:58;;;;;;;4.75;1.55;;;20.00;79.20;;;;;;4892799;28;86712;-78
2022/10/17 13:51:27;;;;;;;4.13;1.45;;;19.90;79.70;;;;;;4885544;28;87428;-77
2022/10/17 13:53:53;;;;;;;3.92;1.88;;;19.90;79.40;;;;;;4886651;28;89159;-82
2022/10/17 13:56:23;;;;;;;7.20;1.80;;;19.90;79.90;;;;;;4890317;28;87409;-82
2022/10/17 13:58:52;;;;;;;7.85;1.58;;;20.00;79.20;;;;;;4899553;28;86959;-82
2022/10/17 14:01:19;;;;;;;6.22;1.50;;;20.00;79.20;;;;;;4896204;28;86376;-80
2022/10/17 14:03:46;;;;;;;12.35;1.40;;;20.00;79.50;;;;;;4892908;28;87173;-80
2022/10/17 14:06:15;;;;;;;2.65;1.33;;;20.00;78.50;;;;;;4893207;28;87033;-79
2022/10/17 14:09:16;;;;;;;2.78;1.58;;;20.00;79.00;;;;;;4895943;28;87063;-84
2022/10/17 14:11:44;;;;;;;3.17;1.00;;;20.00;78.70;;;;;;4893657;28;86223;-85
2022/10/17 14:14:22;;;;;;;6.22;0.93;;;20.10;76.90;;;;;;4891570;28;87527;-83
2022/10/17 14:16:48;;;;;;;2.67;1.02;;;20.20;77.40;;;;;;4894392;28;86933;-82
2022/10/17 14:19:20;;;;;;;3.00;1.50;;;20.20;77.10;;;;;;4891586;28;87549;-85
2022/10/17 14:21:48;;;;;;;7.50;1.00;;;20.20;77.60;;;;;;4889162;28;86274;-86
2022/10/17 14:24:20;;;;;;;3.92;1.30;;;20.10;76.50;;;;;;4889661;28;87091;-84
2022/10/17 14:26:54;;;;;;;3.58;1.23;;;20.00;75.90;;;;;;4887649;28;87138;-85
2022/10/17 14:29:28;;;;;;;3.88;0.88;;;20.00;76.70;;;;;;4888193;28;86554;-79
2022/10/17 14:32:14;;;;;;;4.82;1.17;;;20.00;77.10;;;;;;4888428;28;87219;-79
2022/10/17 14:34:40;;;;;;;4.13;1.02;;;20.00;78.60;;;;;;4888935;28;87654;-79
2022/10/17 14:37:23;;;;;;;5.88;1.27;;;20.00;76.60;;;;;;4892555;28;86329;-79
2022/10/17 14:39:50;;;;;;;5.30;0.98;;;20.20;76.70;;;;;;4890281;28;86765;-80
2022/10/17 14:42:20;;;;;;;4.03;0.93;;;20.20;79.30;;;;;;4898138;28;86843;-79
2022/10/17 14:44:49;;;;;;;5.85;1.17;;;20.20;77.00;;;;;;4887430;28;87376;-81
2022/10/17 14:47:21;;;;;;;3.25;1.13;;;20.30;76.90;;;;;;4898167;28;87787;-79
2022/10/17 14:50:00;;;;;;;4.05;1.00;;;20.30;77.80;;;;;;4887677;28;86422;-80
2022/10/17 14:52:28;;;;;;;6.28;0.90;;;20.20;77.20;;;;;;4894016;28;86244;-80
2022/10/17 14:54:55;;;;;;;3.75;1.13;;;20.10;77.20;;;;;;4894873;28;87116;-80
2022/10/17 14:57:45;;;;;;;2.00;0.68;;;20.10;76.90;;;;;;4894303;28;86947;-80
2022/10/17 15:00:15;;;;;;;2.30;0.82;;;20.00;77.20;;;;;;4880789;28;86874;-80
2022/10/17 15:02:41;;;;;;;2.78;1.05;;;20.00;78.10;;;;;;4897107;28;86268;-80
2022/10/17 15:05:07;;;;;;;3.15;1.17;;;20.00;78.30;;;;;;4896028;28;86954;-79
2022/10/17 15:07:32;;;;;;;2.95;1.10;;;20.00;78.90;;;;;;4893265;28;87025;-79
2022/10/17 15:09:58;;;;;;;6.22;0.80;;;20.00;78.50;;;;;;4896807;28;87667;-79
2022/10/17 15:12:24;;;;;;;4.88;1.20;;;20.10;78.50;;;;;;4897436;28;87402;-78
2022/10/17 15:14:51;;;;;;;9.18;1.23;;;20.00;79.30;;;;;;4899022;28;87126;-79
2022/10/17 15:17:37;;;;;;;10.55;0.82;;;20.00;79.20;;;;;;4897310;28;86954;-79
2022/10/17 15:20:11;;;;;;;4.22;0.95;;;20.10;78.40;;;;;;4898400;28;87220;-79
2022/10/17 15:22:36;;;;;;;7.88;1.00;;;20.20;78.40;;;;;;4898063;28;86806;-79
2022/10/17 15:25:02;;;;;;;8.75;1.27;;;20.30;78.10;;;;;;4878071;28;90922;-79
2022/10/17 15:27:30;;;;;;;4.72;1.35;;;20.30;78.80;;;;;;4891452;28;86826;-80
2022/10/17 15:29:55;;;;;;;4.43;1.35;;;20.20;78.50;;;;;;4894595;28;86913;-81
2022/10/17 15:32:21;;;;;;;3.88;1.42;;;20.30;78.90;;;;;;4893825;28;86886;-80
2022/10/17 15:34:47;;;;;;;5.25;1.13;;;20.30;79.20;;;;;;4898984;28;87796;-79
2022/10/17 15:37:24;;;;;;;2.67;0.93;;;20.30;80.00;;;;;;4899646;28;87841;-79
2022/10/17 15:39:54;;;;;;;3.05;1.13;;;20.30;79.30;;;;;;4893476;28;86782;-80
2022/10/17 15:42:27;;;;;;;3.28;1.05;;;20.30;79.90;;;;;;4894142;28;86836;-79
2022/10/17 15:44:53;;;;;;;5.22;0.95;;;20.30;79.70;;;;;;4894736;28;87293;-79
2022/10/17 15:47:23;;;;;;;3.15;1.58;;;20.20;81.70;;;;;;4900177;28;88204;-79
2022/10/17 15:49:49;;;;;;;8.93;1.90;;;20.10;81.10;;;;;;4897839;28;86686;-80
2022/10/17 15:52:15;;;;;;;4.70;1.05;;;20.10;82.10;;;;;;4889173;28;86761;-81